sensor_id;sensor_type;location;lat;lon;timestamp;temperature;humidity
64032;DHT22;50278;47.796;11.968;2023-04-24T00:01:28;8.45;118.99
64032;DHT22;50278;47.796;11.968;2023-04-24T00:03:55;8.56;118.99
64032;DHT22;50278;47.796;11.968;2023-04-24T00:06:25;8.52;118.99
64032;DHT22;50278;47.796;11.968;2023-04-24T00:09:01;8.43;118.99
64032;DHT22;50278;47.796;11.968;2023-04-24T00:11:27;8.45;118.99
64032;DHT22;50278;47.796;11.968;2023-04-24T00:13:52;8.46;118.99
64032;DHT22;50278;47.796;11.968;2023-04-24T00:16:18;8.41;118.99
64032;DHT22;50278;47.796;11.968;2023-04-24T00:18:44;8.42;118.99
64032;DHT22;50278;47.796;11.968;2023-04-24T00:21:10;8.33;118.99
64032;DHT22;50278;47.796;11.968;2023-04-24T00:23:36;8.38;118.99
64032;DHT22;50278;47.796;11.968;2023-04-24T00:26:01;8.31;118.99
64032;DHT22;50278;47.796;11.968;2023-04-24T00:28:27;8.34;118.99
64032;DHT22;50278;47.796;11.968;2023-04-24T00:30:53;8.30;118.99
64032;DHT22;50278;47.796;11.968;2023-04-24T00:33:19;8.28;118.99
64032;DHT22;50278;47.796;11.968;2023-04-24T00:35:44;8.31;118.99
64032;DHT22;50278;47.796;11.968;2023-04-24T00:38:10;8.32;118.99
64032;DHT22;50278;47.796;11.968;2023-04-24T00:40:35;8.30;118.99
64032;DHT22;50278;47.796;11.968;2023-04-24T00:43:01;8.35;118.99
64032;DHT22;50278;47.796;11.968;2023-04-24T00:45:27;8.37;118.99
64032;DHT22;50278;47.796;11.968;2023-04-24T00:47:53;8.42;118.99
64032;DHT22;50278;47.796;11.968;2023-04-24T00:50:20;8.35;118.99
64032;DHT22;50278;47.796;11.968;2023-04-24T00:52:46;8.28;118.99
64032;DHT22;50278;47.796;11.968;2023-04-24T00:55:12;8.31;118.99
64032;DHT22;50278;47.796;11.968;2023-04-24T00:57:38;8.35;118.99
64032;DHT22;50278;47.796;11.968;2023-04-24T01:00:05;8.35;118.99
64032;DHT22;50278;47.796;11.968;2023-04-24T01:02:39;8.37;118.99
64032;DHT22;50278;47.796;11.968;2023-04-24T01:05:07;8.34;118.99
64032;DHT22;50278;47.796;11.968;2023-04-24T01:07:33;8.35;118.99
64032;DHT22;50278;47.796;11.968;2023-04-24T01:10:00;8.33;118.99
64032;DHT22;50278;47.796;11.968;2023-04-24T01:12:25;8.37;118.99
64032;DHT22;50278;47.796;11.968;2023-04-24T01:14:51;8.34;118.99
64032;DHT22;50278;47.796;11.968;2023-04-24T01:17:17;8.34;118.99
64032;DHT22;50278;47.796;11.968;2023-04-24T01:19:42;8.32;118.99
64032;DHT22;50278;47.796;11.968;2023-04-24T01:22:16;8.30;118.99
64032;DHT22;50278;47.796;11.968;2023-04-24T01:24:43;8.30;118.99
64032;DHT22;50278;47.796;11.968;2023-04-24T01:27:11;8.31;118.99
64032;DHT22;50278;47.796;11.968;2023-04-24T01:29:37;8.16;118.99
64032;DHT22;50278;47.796;11.968;2023-04-24T01:32:04;8.38;118.99
64032;DHT22;50278;47.796;11.968;2023-04-24T01:34:30;8.45;118.99
64032;DHT22;50278;47.796;11.968;2023-04-24T01:36:55;8.33;118.99
64032;DHT22;50278;47.796;11.968;2023-04-24T01:39:22;8.31;118.99
64032;DHT22;50278;47.796;11.968;2023-04-24T01:41:53;8.24;118.99
64032;DHT22;50278;47.796;11.968;2023-04-24T01:44:19;8.31;118.99
64032;DHT22;50278;47.796;11.968;2023-04-24T01:46:45;8.42;118.99
64032;DHT22;50278;47.796;11.968;2023-04-24T01:49:10;8.35;118.99
64032;DHT22;50278;47.796;11.968;2023-04-24T01:51:37;8.30;118.99
64032;DHT22;50278;47.796;11.968;2023-04-24T01:54:03;8.18;118.99
64032;DHT22;50278;47.796;11.968;2023-04-24T01:56:29;8.20;118.99
64032;DHT22;50278;47.796;11.968;2023-04-24T01:58:56;8.20;118.99
64032;DHT22;50278;47.796;11.968;2023-04-24T02:01:25;8.27;118.99
64032;DHT22;50278;47.796;11.968;2023-04-24T02:03:51;8.26;118.99
64032;DHT22;50278;47.796;11.968;2023-04-24T02:06:17;8.31;118.99
64032;DHT22;50278;47.796;11.968;2023-04-24T02:08:43;8.34;118.99
64032;DHT22;50278;47.796;11.968;2023-04-24T02:11:09;8.24;118.99
64032;DHT22;50278;47.796;11.968;2023-04-24T02:13:35;8.30;118.99
64032;DHT22;50278;47.796;11.968;2023-04-24T02:16:00;8.36;118.99
64032;DHT22;50278;47.796;11.968;2023-04-24T02:18:26;8.19;118.99
64032;DHT22;50278;47.796;11.968;2023-04-24T02:20:52;8.24;118.99
64032;DHT22;50278;47.796;11.968;2023-04-24T02:23:17;8.27;118.99
64032;DHT22;50278;47.796;11.968;2023-04-24T02:25:44;8.24;118.99
64032;DHT22;50278;47.796;11.968;2023-04-24T02:28:11;8.27;118.99
64032;DHT22;50278;47.796;11.968;2023-04-24T02:30:36;8.26;118.99
64032;DHT22;50278;47.796;11.968;2023-04-24T02:33:02;8.19;118.99
64032;DHT22;50278;47.796;11.968;2023-04-24T02:35:28;8.09;118.99
64032;DHT22;50278;47.796;11.968;2023-04-24T02:37:54;8.13;118.99
64032;DHT22;50278;47.796;11.968;2023-04-24T02:40:19;8.13;118.99
64032;DHT22;50278;47.796;11.968;2023-04-24T02:42:46;8.09;118.99
64032;DHT22;50278;47.796;11.968;2023-04-24T02:45:11;8.08;118.99
64032;DHT22;50278;47.796;11.968;2023-04-24T02:47:37;8.05;118.99
64032;DHT22;50278;47.796;11.968;2023-04-24T02:50:03;8.11;118.99
64032;DHT22;50278;47.796;11.968;2023-04-24T02:52:29;8.24;118.99
64032;DHT22;50278;47.796;11.968;2023-04-24T02:54:55;8.26;118.99
64032;DHT22;50278;47.796;11.968;2023-04-24T02:57:20;8.29;118.99
64032;DHT22;50278;47.796;11.968;2023-04-24T02:59:46;8.28;118.99
64032;DHT22;50278;47.796;11.968;2023-04-24T03:02:11;8.33;118.99
64032;DHT22;50278;47.796;11.968;2023-04-24T03:04:37;8.30;118.99
64032;DHT22;50278;47.796;11.968;2023-04-24T03:07:02;8.29;118.99
64032;DHT22;50278;47.796;11.968;2023-04-24T03:09:28;8.36;118.99
64032;DHT22;50278;47.796;11.968;2023-04-24T03:11:53;8.29;118.99
64032;DHT22;50278;47.796;11.968;2023-04-24T03:14:19;8.26;118.99
64032;DHT22;50278;47.796;11.968;2023-04-24T03:16:44;8.18;118.99
64032;DHT22;50278;47.796;11.968;2023-04-24T03:19:10;8.27;118.99
64032;DHT22;50278;47.796;11.968;2023-04-24T03:21:44;8.23;118.99
64032;DHT22;50278;47.796;11.968;2023-04-24T03:24:10;8.17;118.99
64032;DHT22;50278;47.796;11.968;2023-04-24T03:26:37;8.11;118.99
64032;DHT22;50278;47.796;11.968;2023-04-24T03:29:16;8.09;118.99
64032;DHT22;50278;47.796;11.968;2023-04-24T03:31:42;8.03;118.99
64032;DHT22;50278;47.796;11.968;2023-04-24T03:34:07;8.03;118.99
64032;DHT22;50278;47.796;11.968;2023-04-24T03:36:33;8.05;118.99
64032;DHT22;50278;47.796;11.968;2023-04-24T03:38:58;8.05;118.99
64032;DHT22;50278;47.796;11.968;2023-04-24T03:41:28;8.05;118.99
64032;DHT22;50278;47.796;11.968;2023-04-24T03:44:14;8.09;118.99
64032;DHT22;50278;47.796;11.968;2023-04-24T03:46:40;8.03;118.99
64032;DHT22;50278;47.796;11.968;2023-04-24T03:49:05;7.93;118.99
64032;DHT22;50278;47.796;11.968;2023-04-24T03:51:35;7.86;118.99
64032;DHT22;50278;47.796;11.968;2023-04-24T03:54:09;7.81;118.99
64032;DHT22;50278;47.796;11.968;2023-04-24T03:56:38;7.77;118.99
64032;DHT22;50278;47.796;11.968;2023-04-24T03:59:03;7.72;118.99
64032;DHT22;50278;47.796;11.968;2023-04-24T04:01:29;7.69;118.99
64032;DHT22;50278;47.796;11.968;2023-04-24T04:04:06;7.67;118.99
64032;DHT22;50278;47.796;11.968;2023-04-24T04:06:32;7.58;118.99
64032;DHT22;50278;47.796;11.968;2023-04-24T04:08:59;7.61;118.99
64032;DHT22;50278;47.796;11.968;2023-04-24T04:11:25;7.59;118.99
64032;DHT22;50278;47.796;11.968;2023-04-24T04:13:51;7.60;118.99
64032;DHT22;50278;47.796;11.968;2023-04-24T04:16:19;7.62;118.99
64032;DHT22;50278;47.796;11.968;2023-04-24T04:18:48;7.65;118.99
64032;DHT22;50278;47.796;11.968;2023-04-24T04:21:14;7.71;118.99
64032;DHT22;50278;47.796;11.968;2023-04-24T04:23:40;7.72;118.99
64032;DHT22;50278;47.796;11.968;2023-04-24T04:26:12;7.69;118.99
64032;DHT22;50278;47.796;11.968;2023-04-24T04:28:53;7.73;118.99
64032;DHT22;50278;47.796;11.968;2023-04-24T04:31:20;7.74;118.99
64032;DHT22;50278;47.796;11.968;2023-04-24T04:33:47;7.75;118.99
64032;DHT22;50278;47.796;11.968;2023-04-24T04:36:12;7.75;118.99
64032;DHT22;50278;47.796;11.968;2023-04-24T04:38:43;7.70;118.99
64032;DHT22;50278;47.796;11.968;2023-04-24T04:41:42;7.75;118.99
64032;DHT22;50278;47.796;11.968;2023-04-24T04:44:09;7.77;118.99
64032;DHT22;50278;47.796;11.968;2023-04-24T04:46:35;7.74;118.99
64032;DHT22;50278;47.796;11.968;2023-04-24T04:49:10;7.69;118.99
64032;DHT22;50278;47.796;11.968;2023-04-24T04:51:37;7.79;118.99
64032;DHT22;50278;47.796;11.968;2023-04-24T04:54:02;7.73;118.99
64032;DHT22;50278;47.796;11.968;2023-04-24T04:56:28;7.72;118.99
64032;DHT22;50278;47.796;11.968;2023-04-24T04:58:59;7.82;118.99
64032;DHT22;50278;47.796;11.968;2023-04-24T05:01:31;7.78;118.99
64032;DHT22;50278;47.796;11.968;2023-04-24T05:03:56;7.85;118.99
64032;DHT22;50278;47.796;11.968;2023-04-24T05:06:22;7.84;118.99
64032;DHT22;50278;47.796;11.968;2023-04-24T05:08:48;7.86;118.99
64032;DHT22;50278;47.796;11.968;2023-04-24T05:11:26;8.00;118.99
64032;DHT22;50278;47.796;11.968;2023-04-24T05:13:54;8.01;118.99
64032;DHT22;50278;47.796;11.968;2023-04-24T05:16:27;8.00;118.99
64032;DHT22;50278;47.796;11.968;2023-04-24T05:18:55;7.99;118.99
64032;DHT22;50278;47.796;11.968;2023-04-24T05:21:27;7.99;118.99
64032;DHT22;50278;47.796;11.968;2023-04-24T05:23:54;8.05;118.99
64032;DHT22;50278;47.796;11.968;2023-04-24T05:26:52;8.08;118.99
64032;DHT22;50278;47.796;11.968;2023-04-24T05:29:31;8.07;118.99
64032;DHT22;50278;47.796;11.968;2023-04-24T05:31:59;8.07;118.99
64032;DHT22;50278;47.796;11.968;2023-04-24T05:34:27;8.11;118.99
64032;DHT22;50278;47.796;11.968;2023-04-24T05:36:55;7.98;118.99
64032;DHT22;50278;47.796;11.968;2023-04-24T05:39:21;7.98;118.99
64032;DHT22;50278;47.796;11.968;2023-04-24T05:41:46;8.00;118.99
64032;DHT22;50278;47.796;11.968;2023-04-24T05:44:12;7.97;118.99
64032;DHT22;50278;47.796;11.968;2023-04-24T05:46:38;8.08;118.99
64032;DHT22;50278;47.796;11.968;2023-04-24T05:49:03;8.18;118.99
64032;DHT22;50278;47.796;11.968;2023-04-24T05:51:31;8.15;118.99
64032;DHT22;50278;47.796;11.968;2023-04-24T05:53:57;8.43;118.99
64032;DHT22;50278;47.796;11.968;2023-04-24T05:56:24;8.47;118.99
64032;DHT22;50278;47.796;11.968;2023-04-24T05:58:50;8.57;118.99
64032;DHT22;50278;47.796;11.968;2023-04-24T06:01:15;8.70;118.99
64032;DHT22;50278;47.796;11.968;2023-04-24T06:03:44;8.81;118.99
64032;DHT22;50278;47.796;11.968;2023-04-24T06:06:10;8.77;118.99
64032;DHT22;50278;47.796;11.968;2023-04-24T06:08:36;8.89;118.99
64032;DHT22;50278;47.796;11.968;2023-04-24T06:11:02;8.87;118.99
64032;DHT22;50278;47.796;11.968;2023-04-24T06:13:28;8.91;118.99
64032;DHT22;50278;47.796;11.968;2023-04-24T06:16:31;9.08;118.99
64032;DHT22;50278;47.796;11.968;2023-04-24T06:19:02;9.08;118.99
64032;DHT22;50278;47.796;11.968;2023-04-24T06:21:28;9.41;118.99
64032;DHT22;50278;47.796;11.968;2023-04-24T06:23:54;9.47;118.99
64032;DHT22;50278;47.796;11.968;2023-04-24T06:26:21;9.37;118.99
64032;DHT22;50278;47.796;11.968;2023-04-24T06:28:47;9.34;118.99
64032;DHT22;50278;47.796;11.968;2023-04-24T06:31:13;9.40;118.99
64032;DHT22;50278;47.796;11.968;2023-04-24T06:33:38;9.56;118.99
64032;DHT22;50278;47.796;11.968;2023-04-24T06:36:04;9.53;118.99
64032;DHT22;50278;47.796;11.968;2023-04-24T06:38:29;9.47;118.99
64032;DHT22;50278;47.796;11.968;2023-04-24T06:40:55;9.68;118.99
64032;DHT22;50278;47.796;11.968;2023-04-24T06:43:20;9.67;118.99
64032;DHT22;50278;47.796;11.968;2023-04-24T06:45:46;9.69;118.99
64032;DHT22;50278;47.796;11.968;2023-04-24T06:48:12;9.77;118.99
64032;DHT22;50278;47.796;11.968;2023-04-24T06:50:37;9.84;118.99
64032;DHT22;50278;47.796;11.968;2023-04-24T06:53:03;9.78;118.99
64032;DHT22;50278;47.796;11.968;2023-04-24T06:55:29;10.52;118.99
64032;DHT22;50278;47.796;11.968;2023-04-24T06:57:55;10.80;118.99
64032;DHT22;50278;47.796;11.968;2023-04-24T07:00:20;10.90;118.99
64032;DHT22;50278;47.796;11.968;2023-04-24T07:02:46;10.95;118.99
64032;DHT22;50278;47.796;11.968;2023-04-24T07:05:11;11.16;118.99
64032;DHT22;50278;47.796;11.968;2023-04-24T07:07:38;11.14;118.99
64032;DHT22;50278;47.796;11.968;2023-04-24T07:10:06;11.22;118.99
64032;DHT22;50278;47.796;11.968;2023-04-24T07:12:31;11.29;118.99
64032;DHT22;50278;47.796;11.968;2023-04-24T07:14:57;11.31;118.99
64032;DHT22;50278;47.796;11.968;2023-04-24T07:17:23;11.30;118.99
64032;DHT22;50278;47.796;11.968;2023-04-24T07:19:48;11.44;118.99
64032;DHT22;50278;47.796;11.968;2023-04-24T07:22:13;11.44;118.99
64032;DHT22;50278;47.796;11.968;2023-04-24T07:24:43;11.42;118.99
64032;DHT22;50278;47.796;11.968;2023-04-24T07:27:09;11.68;118.99
64032;DHT22;50278;47.796;11.968;2023-04-24T07:29:34;11.68;118.99
64032;DHT22;50278;47.796;11.968;2023-04-24T07:32:01;12.04;118.99
64032;DHT22;50278;47.796;11.968;2023-04-24T07:34:26;11.86;118.99
64032;DHT22;50278;47.796;11.968;2023-04-24T07:36:52;12.15;118.99
64032;DHT22;50278;47.796;11.968;2023-04-24T07:39:18;12.02;118.99
64032;DHT22;50278;47.796;11.968;2023-04-24T07:41:43;11.93;118.99
64032;DHT22;50278;47.796;11.968;2023-04-24T07:44:09;11.92;118.99
64032;DHT22;50278;47.796;11.968;2023-04-24T07:46:35;11.86;118.99
64032;DHT22;50278;47.796;11.968;2023-04-24T07:49:00;12.04;118.99
64032;DHT22;50278;47.796;11.968;2023-04-24T07:51:26;12.08;118.99
64032;DHT22;50278;47.796;11.968;2023-04-24T07:53:55;12.22;118.99
64032;DHT22;50278;47.796;11.968;2023-04-24T07:56:21;12.29;118.99
64032;DHT22;50278;47.796;11.968;2023-04-24T07:58:46;12.58;118.99
64032;DHT22;50278;47.796;11.968;2023-04-24T08:01:12;12.87;118.99
64032;DHT22;50278;47.796;11.968;2023-04-24T08:03:38;13.15;118.99
64032;DHT22;50278;47.796;11.968;2023-04-24T08:06:03;12.81;118.99
64032;DHT22;50278;47.796;11.968;2023-04-24T08:08:29;12.61;118.99
64032;DHT22;50278;47.796;11.968;2023-04-24T08:10:54;12.76;118.99
64032;DHT22;50278;47.796;11.968;2023-04-24T08:13:20;13.00;118.99
64032;DHT22;50278;47.796;11.968;2023-04-24T08:15:46;13.20;118.99
64032;DHT22;50278;47.796;11.968;2023-04-24T08:18:11;12.89;118.99
64032;DHT22;50278;47.796;11.968;2023-04-24T08:20:39;12.97;118.99
64032;DHT22;50278;47.796;11.968;2023-04-24T08:23:04;13.24;118.99
64032;DHT22;50278;47.796;11.968;2023-04-24T08:25:30;13.01;118.99
64032;DHT22;50278;47.796;11.968;2023-04-24T08:27:56;12.93;118.99
64032;DHT22;50278;47.796;11.968;2023-04-24T08:30:21;12.37;118.99
64032;DHT22;50278;47.796;11.968;2023-04-24T08:32:47;12.57;118.99
64032;DHT22;50278;47.796;11.968;2023-04-24T08:35:13;12.30;118.99
64032;DHT22;50278;47.796;11.968;2023-04-24T08:37:38;11.77;118.99
64032;DHT22;50278;47.796;11.968;2023-04-24T08:40:10;11.56;118.99
64032;DHT22;50278;47.796;11.968;2023-04-24T08:42:37;11.58;118.99
64032;DHT22;50278;47.796;11.968;2023-04-24T08:45:02;11.75;118.99
64032;DHT22;50278;47.796;11.968;2023-04-24T08:47:28;11.98;118.99
64032;DHT22;50278;47.796;11.968;2023-04-24T08:49:56;12.02;118.99
64032;DHT22;50278;47.796;11.968;2023-04-24T08:52:21;11.86;118.99
64032;DHT22;50278;47.796;11.968;2023-04-24T08:54:48;12.02;118.99
64032;DHT22;50278;47.796;11.968;2023-04-24T08:57:14;12.04;118.99
64032;DHT22;50278;47.796;11.968;2023-04-24T08:59:40;11.82;118.99
64032;DHT22;50278;47.796;11.968;2023-04-24T09:02:09;11.97;118.99
64032;DHT22;50278;47.796;11.968;2023-04-24T09:04:36;11.45;118.99
64032;DHT22;50278;47.796;11.968;2023-04-24T09:07:02;11.15;118.99
64032;DHT22;50278;47.796;11.968;2023-04-24T09:09:30;11.11;118.99
64032;DHT22;50278;47.796;11.968;2023-04-24T09:11:58;11.13;118.99
64032;DHT22;50278;47.796;11.968;2023-04-24T09:14:24;11.25;118.99
64032;DHT22;50278;47.796;11.968;2023-04-24T09:16:51;11.34;118.99
64032;DHT22;50278;47.796;11.968;2023-04-24T09:19:16;11.42;118.99
64032;DHT22;50278;47.796;11.968;2023-04-24T09:21:45;11.34;118.99
64032;DHT22;50278;47.796;11.968;2023-04-24T09:24:16;11.79;118.99
64032;DHT22;50278;47.796;11.968;2023-04-24T09:26:48;11.91;118.99
64032;DHT22;50278;47.796;11.968;2023-04-24T09:29:15;11.83;118.99
64032;DHT22;50278;47.796;11.968;2023-04-24T09:31:42;11.90;118.99
64032;DHT22;50278;47.796;11.968;2023-04-24T09:34:08;11.73;118.99
64032;DHT22;50278;47.796;11.968;2023-04-24T09:36:42;11.91;118.99
64032;DHT22;50278;47.796;11.968;2023-04-24T09:39:10;12.10;118.99
64032;DHT22;50278;47.796;11.968;2023-04-24T09:44:16;11.90;118.99
64032;DHT22;50278;47.796;11.968;2023-04-24T09:46:44;11.94;118.99
64032;DHT22;50278;47.796;11.968;2023-04-24T09:49:15;12.17;118.99
64032;DHT22;50278;47.796;11.968;2023-04-24T09:51:42;12.26;118.99
64032;DHT22;50278;47.796;11.968;2023-04-24T09:54:18;12.53;118.99
64032;DHT22;50278;47.796;11.968;2023-04-24T09:56:47;12.94;118.99
64032;DHT22;50278;47.796;11.968;2023-04-24T09:59:18;12.96;118.99
64032;DHT22;50278;47.796;11.968;2023-04-24T10:01:44;13.07;118.99
64032;DHT22;50278;47.796;11.968;2023-04-24T10:04:20;13.76;118.99
64032;DHT22;50278;47.796;11.968;2023-04-24T10:06:47;13.29;118.99
64032;DHT22;50278;47.796;11.968;2023-04-24T10:09:17;14.01;118.99
64032;DHT22;50278;47.796;11.968;2023-04-24T10:11:45;14.12;118.99
64032;DHT22;50278;47.796;11.968;2023-04-24T10:14:17;14.10;118.99
64032;DHT22;50278;47.796;11.968;2023-04-24T10:16:43;13.40;118.99
64032;DHT22;50278;47.796;11.968;2023-04-24T10:19:10;13.26;118.99
64032;DHT22;50278;47.796;11.968;2023-04-24T10:21:36;13.74;118.23
64032;DHT22;50278;47.796;11.968;2023-04-24T10:24:11;13.79;117.19
64032;DHT22;50278;47.796;11.968;2023-04-24T10:26:38;13.78;118.99
64032;DHT22;50278;47.796;11.968;2023-04-24T10:29:05;13.92;115.95
64032;DHT22;50278;47.796;11.968;2023-04-24T10:31:35;13.10;118.99
64032;DHT22;50278;47.796;11.968;2023-04-24T10:34:02;13.78;118.99
64032;DHT22;50278;47.796;11.968;2023-04-24T10:36:29;13.51;118.99
64032;DHT22;50278;47.796;11.968;2023-04-24T10:38:59;13.56;118.99
64032;DHT22;50278;47.796;11.968;2023-04-24T10:41:26;13.96;115.78
64032;DHT22;50278;47.796;11.968;2023-04-24T10:44:08;14.20;110.70
64032;DHT22;50278;47.796;11.968;2023-04-24T10:46:35;13.75;108.30
64032;DHT22;50278;47.796;11.968;2023-04-24T10:49:06;13.37;108.92
64032;DHT22;50278;47.796;11.968;2023-04-24T10:51:50;13.64;109.33
64032;DHT22;50278;47.796;11.968;2023-04-24T10:56:51;13.59;107.54
64032;DHT22;50278;47.796;11.968;2023-04-24T10:59:35;13.86;110.78
64032;DHT22;50278;47.796;11.968;2023-04-24T11:02:00;13.79;112.32
64032;DHT22;50278;47.796;11.968;2023-04-24T11:04:30;13.84;109.86
64032;DHT22;50278;47.796;11.968;2023-04-24T11:06:57;13.39;102.12
64032;DHT22;50278;47.796;11.968;2023-04-24T11:09:26;13.43;105.98
64032;DHT22;50278;47.796;11.968;2023-04-24T11:12:03;13.39;101.74
64032;DHT22;50278;47.796;11.968;2023-04-24T11:14:30;13.53;102.61
64032;DHT22;50278;47.796;11.968;2023-04-24T11:16:55;13.85;99.83
64032;DHT22;50278;47.796;11.968;2023-04-24T11:19:25;13.21;100.40
64032;DHT22;50278;47.796;11.968;2023-04-24T11:27:20;13.85;94.52
64032;DHT22;50278;47.796;11.968;2023-04-24T11:35:22;14.52;93.68
64032;DHT22;50278;47.796;11.968;2023-04-24T11:37:53;14.12;94.56
64032;DHT22;50278;47.796;11.968;2023-04-24T11:40:20;13.82;94.23
64032;DHT22;50278;47.796;11.968;2023-04-24T11:42:49;13.73;95.07
64032;DHT22;50278;47.796;11.968;2023-04-24T11:45:22;13.71;100.59
64032;DHT22;50278;47.796;11.968;2023-04-24T11:47:48;13.63;95.68
64032;DHT22;50278;47.796;11.968;2023-04-24T11:50:16;13.07;104.77
64032;DHT22;50278;47.796;11.968;2023-04-24T11:52:44;12.82;111.63
64032;DHT22;50278;47.796;11.968;2023-04-24T11:57:46;10.67;118.99
64032;DHT22;50278;47.796;11.968;2023-04-24T12:00:31;10.51;118.99
64032;DHT22;50278;47.796;11.968;2023-04-24T12:03:09;10.55;118.99
64032;DHT22;50278;47.796;11.968;2023-04-24T12:05:35;10.69;118.99
64032;DHT22;50278;47.796;11.968;2023-04-24T12:08:00;10.53;118.99
64032;DHT22;50278;47.796;11.968;2023-04-24T12:10:28;11.01;118.99
64032;DHT22;50278;47.796;11.968;2023-04-24T12:12:56;11.29;118.99
64032;DHT22;50278;47.796;11.968;2023-04-24T12:15:22;11.57;118.99
64032;DHT22;50278;47.796;11.968;2023-04-24T12:17:50;12.23;118.99
64032;DHT22;50278;47.796;11.968;2023-04-24T12:20:16;12.59;118.99
64032;DHT22;50278;47.796;11.968;2023-04-24T12:25:18;13.01;118.99
64032;DHT22;50278;47.796;11.968;2023-04-24T12:27:44;13.04;118.99
64032;DHT22;50278;47.796;11.968;2023-04-24T12:30:15;13.52;118.23
64032;DHT22;50278;47.796;11.968;2023-04-24T12:32:43;13.69;110.96
64032;DHT22;50278;47.796;11.968;2023-04-24T12:35:09;13.76;115.00
64032;DHT22;50278;47.796;11.968;2023-04-24T12:37:34;13.64;107.53
64032;DHT22;50278;47.796;11.968;2023-04-24T12:40:07;14.55;100.19
64032;DHT22;50278;47.796;11.968;2023-04-24T12:42:33;14.05;95.80
64032;DHT22;50278;47.796;11.968;2023-04-24T12:45:02;14.21;88.73
64032;DHT22;50278;47.796;11.968;2023-04-24T12:47:28;14.47;92.30
64032;DHT22;50278;47.796;11.968;2023-04-24T12:49:54;14.63;88.67
64032;DHT22;50278;47.796;11.968;2023-04-24T12:52:22;15.36;86.48
64032;DHT22;50278;47.796;11.968;2023-04-24T12:54:49;15.12;79.55
64032;DHT22;50278;47.796;11.968;2023-04-24T12:57:14;15.27;80.52
64032;DHT22;50278;47.796;11.968;2023-04-24T12:59:40;15.73;77.29
64032;DHT22;50278;47.796;11.968;2023-04-24T13:02:06;14.84;78.78
64032;DHT22;50278;47.796;11.968;2023-04-24T13:04:32;14.74;76.46
64032;DHT22;50278;47.796;11.968;2023-04-24T13:06:57;14.63;76.34
64032;DHT22;50278;47.796;11.968;2023-04-24T13:09:23;14.79;76.38
64032;DHT22;50278;47.796;11.968;2023-04-24T13:11:49;14.78;79.07
64032;DHT22;50278;47.796;11.968;2023-04-24T13:14:15;15.37;74.07
64032;DHT22;50278;47.796;11.968;2023-04-24T13:16:41;14.99;74.70
64032;DHT22;50278;47.796;11.968;2023-04-24T13:19:06;15.52;75.81
64032;DHT22;50278;47.796;11.968;2023-04-24T13:21:32;15.08;71.40
64032;DHT22;50278;47.796;11.968;2023-04-24T13:23:57;15.23;75.15
64032;DHT22;50278;47.796;11.968;2023-04-24T13:26:23;15.72;75.39
64032;DHT22;50278;47.796;11.968;2023-04-24T13:28:48;15.58;72.68
64032;DHT22;50278;47.796;11.968;2023-04-24T13:31:14;15.26;70.81
64032;DHT22;50278;47.796;11.968;2023-04-24T13:33:40;13.79;76.38
64032;DHT22;50278;47.796;11.968;2023-04-24T13:36:06;13.95;79.90
64032;DHT22;50278;47.796;11.968;2023-04-24T13:38:31;14.10;80.54
64032;DHT22;50278;47.796;11.968;2023-04-24T13:40:57;14.04;81.39
64032;DHT22;50278;47.796;11.968;2023-04-24T13:43:22;14.88;77.23
64032;DHT22;50278;47.796;11.968;2023-04-24T13:45:48;15.03;80.12
64032;DHT22;50278;47.796;11.968;2023-04-24T13:48:13;14.86;83.90
64032;DHT22;50278;47.796;11.968;2023-04-24T13:50:41;14.59;84.58
64032;DHT22;50278;47.796;11.968;2023-04-24T13:53:07;14.15;91.48
64032;DHT22;50278;47.796;11.968;2023-04-24T13:55:32;13.53;90.62
64032;DHT22;50278;47.796;11.968;2023-04-24T13:57:58;13.20;90.20
64032;DHT22;50278;47.796;11.968;2023-04-24T14:00:24;12.99;85.20
64032;DHT22;50278;47.796;11.968;2023-04-24T14:02:49;12.75;89.47
64032;DHT22;50278;47.796;11.968;2023-04-24T14:05:15;12.88;87.28
64032;DHT22;50278;47.796;11.968;2023-04-24T14:07:41;13.14;87.30
64032;DHT22;50278;47.796;11.968;2023-04-24T14:10:07;13.95;82.77
64032;DHT22;50278;47.796;11.968;2023-04-24T14:12:33;14.62;82.75
64032;DHT22;50278;47.796;11.968;2023-04-24T14:14:58;15.92;78.98
64032;DHT22;50278;47.796;11.968;2023-04-24T14:17:24;16.03;77.50
64032;DHT22;50278;47.796;11.968;2023-04-24T14:19:49;16.55;77.32
64032;DHT22;50278;47.796;11.968;2023-04-24T14:22:17;18.61;70.17
64032;DHT22;50278;47.796;11.968;2023-04-24T14:24:42;18.40;65.70
64032;DHT22;50278;47.796;11.968;2023-04-24T14:27:08;16.73;71.85
64032;DHT22;50278;47.796;11.968;2023-04-24T14:29:33;17.19;70.21
64032;DHT22;50278;47.796;11.968;2023-04-24T14:31:59;17.43;72.77
64032;DHT22;50278;47.796;11.968;2023-04-24T14:34:24;17.03;66.81
64032;DHT22;50278;47.796;11.968;2023-04-24T14:36:52;17.21;65.37
64032;DHT22;50278;47.796;11.968;2023-04-24T14:39:17;16.00;68.84
64032;DHT22;50278;47.796;11.968;2023-04-24T14:41:43;17.47;65.28
64032;DHT22;50278;47.796;11.968;2023-04-24T14:44:08;16.64;66.02
64032;DHT22;50278;47.796;11.968;2023-04-24T14:46:34;14.03;73.43
64032;DHT22;50278;47.796;11.968;2023-04-24T14:48:59;11.73;74.86
64032;DHT22;50278;47.796;11.968;2023-04-24T14:51:25;11.01;73.27
64032;DHT22;50278;47.796;11.968;2023-04-24T14:53:51;9.61;75.96
64032;DHT22;50278;47.796;11.968;2023-04-24T14:56:17;9.63;73.42
64032;DHT22;50278;47.796;11.968;2023-04-24T14:58:42;11.94;71.27
64032;DHT22;50278;47.796;11.968;2023-04-24T15:01:08;10.39;66.25
64032;DHT22;50278;47.796;11.968;2023-04-24T15:03:33;9.80;72.95
64032;DHT22;50278;47.796;11.968;2023-04-24T15:05:59;10.39;69.87
64032;DHT22;50278;47.796;11.968;2023-04-24T15:08:24;10.46;69.11
64032;DHT22;50278;47.796;11.968;2023-04-24T15:10:50;13.44;70.77
64032;DHT22;50278;47.796;11.968;2023-04-24T15:13:16;11.62;79.92
64032;DHT22;50278;47.796;11.968;2023-04-24T15:15:41;9.83;71.40
64032;DHT22;50278;47.796;11.968;2023-04-24T15:18:08;11.77;73.30
64032;DHT22;50278;47.796;11.968;2023-04-24T15:20:34;9.97;86.94
64032;DHT22;50278;47.796;11.968;2023-04-24T15:23:00;7.50;89.86
64032;DHT22;50278;47.796;11.968;2023-04-24T15:25:27;8.56;103.95
64032;DHT22;50278;47.796;11.968;2023-04-24T15:27:53;8.33;90.46
64032;DHT22;50278;47.796;11.968;2023-04-24T15:30:18;8.53;83.40
64032;DHT22;50278;47.796;11.968;2023-04-24T15:32:44;7.93;92.98
64032;DHT22;50278;47.796;11.968;2023-04-24T15:35:09;9.32;118.99